Time;durP1;ratioP1;P1;durP2;ratioP2;P2;SDS_P1;SDS_P2;PMS_P1;PMS_P2;Temp;Humidity;BMP_temperature;BMP_pressure;BME280_temperature;BME280_humidity;BME280_pressure;Samples;Min_cycle;Max_cycle;Signal;HPM_P1;HPM_P2
2022/09/23 00:02:17;;;;;;;13.85;6.38;;;;;;;12.94;58.67;101866.66;5049972;27;97209;-68
2022/09/23 00:04:45;;;;;;;11.27;6.63;;;;;;;12.94;58.47;101866.66;5049486;27;99288;-68
2022/09/23 00:07:15;;;;;;;13.95;6.60;;;;;;;12.99;58.14;101867.44;5054179;27;98720;-68
2022/09/23 00:09:42;;;;;;;12.63;6.60;;;;;;;12.95;58.32;101864.88;5047230;27;97507;-69
2022/09/23 00:12:09;;;;;;;11.07;6.32;;;;;;;13.07;57.90;101860.09;5048585;27;96890;-68
2022/09/23 00:14:36;;;;;;;11.23;6.53;;;;;;;13.12;58.04;101862.66;5042590;27;99065;-68
2022/09/23 00:17:03;;;;;;;9.88;6.40;;;;;;;13.01;58.25;101862.94;5051101;27;99030;-68
2022/09/23 00:19:29;;;;;;;12.13;6.15;;;;;;;13.10;58.02;101861.81;5054220;27;97067;-68
2022/09/23 00:21:56;;;;;;;14.20;6.47;;;;;;;12.97;58.62;101847.16;5054093;27;96728;-68
2022/09/23 00:24:24;;;;;;;11.93;6.82;;;;;;;13.05;58.54;101863.72;5050650;27;99153;-68
2022/09/23 00:26:50;;;;;;;14.27;7.35;;;;;;;12.89;58.64;101850.00;5052683;27;98779;-68
2022/09/23 00:29:16;;;;;;;13.35;7.10;;;;;;;12.83;58.94;101855.50;5054801;27;96734;-69
2022/09/23 00:31:46;;;;;;;13.60;6.85;;;;;;;12.86;59.03;101851.88;5052619;27;97350;-68
2022/09/23 00:34:13;;;;;;;11.40;7.05;;;;;;;12.97;58.93;101845.38;5053734;27;99231;-68
2022/09/23 00:36:39;;;;;;;14.18;7.18;;;;;;;13.02;58.67;101840.78;5050984;27;99027;-68
2022/09/23 00:39:10;;;;;;;13.73;7.43;;;;;;;12.97;59.01;101842.72;5054157;27;97667;-68
2022/09/23 00:41:38;;;;;;;11.35;7.15;;;;;;;12.67;59.79;101830.28;5054781;27;96810;-69
2022/09/23 00:44:37;;;;;;;17.63;8.85;;;;;;;12.89;59.52;101836.75;5052028;27;99098;-69
2022/09/23 00:47:04;;;;;;;13.65;6.88;;;;;;;12.89;59.48;101839.41;5055171;27;99301;-69
2022/09/23 00:49:33;;;;;;;14.45;7.70;;;;;;;12.92;59.46;101839.31;5055307;27;96682;-69
2022/09/23 00:52:06;;;;;;;13.73;6.68;;;;;;;12.85;59.50;101834.22;5054204;27;96931;-67
2022/09/23 00:54:33;;;;;;;12.27;6.93;;;;;;;12.99;59.05;101838.25;5046661;27;98914;-68
2022/09/23 00:57:02;;;;;;;14.98;7.25;;;;;;;12.90;59.30;101835.84;5054865;27;97971;-68
2022/09/23 00:59:31;;;;;;;13.40;7.43;;;;;;;12.82;59.51;101834.31;5053594;27;96837;-68
2022/09/23 01:02:00;;;;;;;12.93;7.43;;;;;;;12.88;59.58;101831.47;5051762;27;96919;-68
2022/09/23 01:04:28;;;;;;;10.93;6.95;;;;;;;12.85;59.63;101827.16;5053821;27;99134;-69
2022/09/23 01:06:55;;;;;;;10.55;6.72;;;;;;;12.88;59.51;101828.81;5053839;27;101122;-69
2022/09/23 01:09:23;;;;;;;11.95;7.40;;;;;;;12.66;59.78;101823.25;5053364;27;98127;-69
2022/09/23 01:11:59;;;;;;;14.20;7.07;;;;;;;12.58;60.08;101823.47;5052697;27;96938;-68
2022/09/23 01:14:40;;;;;;;11.45;7.18;;;;;;;12.71;59.74;101821.34;5049256;27;99034;-68
2022/09/23 01:17:16;;;;;;;11.00;7.05;;;;;;;12.62;59.68;101816.28;5050113;27;97586;-69
2022/09/23 01:20:08;;;;;;;12.43;6.70;;;;;;;12.72;59.98;101817.78;5053103;27;98696;-68
2022/09/23 01:22:45;;;;;;;9.70;6.45;;;;;;;12.84;59.47;101813.91;5047496;27;98620;-68
2022/09/23 01:25:26;;;;;;;13.13;6.57;;;;;;;12.64;60.02;101811.81;5051502;27;99398;-68
2022/09/23 01:28:12;;;;;;;10.43;6.80;;;;;;;12.72;59.87;101813.34;5048935;27;98934;-67
2022/09/23 01:30:48;;;;;;;10.50;6.57;;;;;;;12.68;59.91;101808.16;5048757;27;96869;-70
2022/09/23 01:33:23;;;;;;;8.65;5.97;;;;;;;12.64;59.93;101807.38;5050564;27;96873;-68
2022/09/23 01:36:08;;;;;;;11.30;6.28;;;;;;;12.66;59.75;101808.22;5053226;27;98346;-68
2022/09/23 01:38:43;;;;;;;14.45;6.18;;;;;;;12.60;59.79;101804.88;5049934;27;99381;-69
2022/09/23 01:41:30;;;;;;;12.27;6.88;;;;;;;12.53;59.54;101812.13;5053114;27;96889;-67
2022/09/23 01:44:03;;;;;;;12.23;6.55;;;;;;;12.45;59.61;101798.19;5051860;27;97062;-68
2022/09/23 01:46:37;;;;;;;10.43;6.28;;;;;;;12.67;59.13;101803.75;5046604;27;98877;-68
2022/09/23 01:49:11;;;;;;;9.57;6.30;;;;;;;12.65;58.78;101805.59;5053217;27;98094;-68
2022/09/23 01:51:43;;;;;;;12.52;5.95;;;;;;;12.74;58.45;101807.97;5053735;27;96787;-68
2022/09/23 01:54:15;;;;;;;10.98;6.38;;;;;;;12.67;58.73;101798.44;5053801;27;96918;-69
2022/09/23 01:56:48;;;;;;;9.95;6.40;;;;;;;12.39;59.76;101806.31;5052925;27;99110;-68
2022/09/23 01:59:20;;;;;;;14.77;6.80;;;;;;;12.57;59.54;101796.97;5051087;27;99246;-68
2022/09/23 02:01:54;;;;;;;9.68;6.50;;;;;;;12.61;58.93;101799.50;5052287;27;96799;-68
2022/09/23 02:04:29;;;;;;;11.50;6.50;;;;;;;12.80;58.10;101804.31;5053007;27;96875;-68
2022/09/23 02:06:59;;;;;;;9.02;6.45;;;;;;;12.78;58.38;101793.75;5053776;27;99357;-68
2022/09/23 02:09:31;;;;;;;11.63;6.60;;;;;;;12.53;58.78;101787.38;5051363;27;98078;-68
2022/09/23 02:12:04;;;;;;;13.13;6.15;;;;;;;12.65;58.55;101787.91;5052424;27;96757;-68
2022/09/23 02:14:36;;;;;;;10.00;6.03;;;;;;;12.68;58.28;101794.91;5050405;27;97564;-67
2022/09/23 02:17:10;;;;;;;13.05;6.13;;;;;;;12.62;58.68;101785.34;5052658;27;99344;-68
2022/09/23 02:19:42;;;;;;;11.00;6.30;;;;;;;12.69;58.38;101778.06;5051132;27;97944;-67
2022/09/23 02:22:15;;;;;;;13.65;6.50;;;;;;;12.88;57.98;101779.28;5045750;27;96830;-69
2022/09/23 02:24:41;;;;;;;12.27;6.25;;;;;;;12.90;58.02;101776.59;5046725;27;96809;-70
2022/09/23 02:27:17;;;;;;;13.70;6.68;;;;;;;12.89;57.85;101770.44;5051854;27;99193;-68
2022/09/23 02:29:51;;;;;;;9.00;6.53;;;;;;;12.92;56.99;101766.84;5053191;27;98811;-68
2022/09/23 02:32:26;;;;;;;9.90;5.65;;;;;;;12.75;57.95;101765.50;5046991;27;96798;-68
2022/09/23 02:35:00;;;;;;;9.50;6.07;;;;;;;12.81;57.94;101764.47;5051064;27;96804;-67
2022/09/23 02:37:39;;;;;;;11.00;6.18;;;;;;;12.63;58.15;101755.25;5050205;27;98978;-69
2022/09/23 02:40:22;;;;;;;14.77;6.55;;;;;;;12.83;57.89;101754.69;5051935;27;99611;-68
2022/09/23 02:43:04;;;;;;;8.77;5.85;;;;;;;12.49;59.03;101759.19;5047217;27;96804;-69
2022/09/23 02:45:30;;;;;;;13.07;5.68;;;;;;;12.61;58.92;101753.56;5050025;27;98592;-67
2022/09/23 02:48:04;;;;;;;10.32;5.55;;;;;;;12.57;59.06;101747.47;5047932;27;98954;-68
2022/09/23 02:50:33;;;;;;;7.88;5.13;;;;;;;12.63;58.43;101752.59;5049666;27;97473;-68
2022/09/23 02:53:05;;;;;;;9.93;5.18;;;;;;;12.36;59.63;101750.72;5049936;27;96837;-68
2022/09/23 02:55:35;;;;;;;7.60;5.65;;;;;;;12.51;59.37;101752.09;5047942;27;96775;-67
2022/09/23 02:58:04;;;;;;;9.15;5.68;;;;;;;12.34;59.68;101740.16;5051454;27;102564;-68
2022/09/23 03:00:42;;;;;;;9.30;5.50;;;;;;;12.53;59.24;101744.97;5050531;27;98833;-68
2022/09/23 03:03:28;;;;;;;7.47;5.43;;;;;;;12.69;58.36;101736.53;5047641;27;97032;-70
2022/09/23 03:05:58;;;;;;;9.70;6.15;;;;;;;12.80;58.03;101732.72;5049184;27;97728;-68
2022/09/23 03:08:41;;;;;;;8.48;5.30;;;;;;;12.77;58.23;101738.97;5050290;27;98587;-68
2022/09/23 03:11:12;;;;;;;10.55;5.35;;;;;;;12.73;58.05;101726.72;5051022;27;99263;-69
2022/09/23 03:13:52;;;;;;;7.93;5.03;;;;;;;12.68;57.82;101736.56;5048644;27;97323;-68
2022/09/23 03:16:32;;;;;;;7.93;5.03;;;;;;;12.58;58.14;101727.13;5048294;27;96937;-68
2022/09/23 03:19:16;;;;;;;12.23;5.18;;;;;;;12.79;57.42;101726.53;5048589;27;99466;-69
2022/09/23 03:21:46;;;;;;;8.40;4.57;;;;;;;12.79;57.19;101726.53;5050869;27;101259;-68
2022/09/23 03:24:14;;;;;;;10.70;4.63;;;;;;;12.64;57.75;101724.31;5050860;27;97117;-69
2022/09/23 03:26:46;;;;;;;8.68;4.85;;;;;;;12.66;58.09;101715.41;5051600;27;97028;-69
2022/09/23 03:29:14;;;;;;;7.20;4.90;;;;;;;12.55;58.83;101716.59;5050665;27;99203;-69
2022/09/23 03:31:42;;;;;;;6.68;4.82;;;;;;;12.46;59.13;101719.53;5048331;27;99285;-68
2022/09/23 03:34:16;;;;;;;8.45;4.63;;;;;;;12.38;59.39;101720.63;5046999;27;96798;-71
2022/09/23 03:36:54;;;;;;;6.20;4.88;;;;;;;12.33;59.58;101711.94;5050993;27;96915;-69
2022/09/23 03:39:29;;;;;;;9.73;5.13;;;;;;;12.34;59.50;101720.72;5050604;27;98908;-69
2022/09/23 03:42:01;;;;;;;9.50;4.53;;;;;;;12.40;59.31;101714.41;5052413;27;98789;-69
2022/09/23 03:44:29;;;;;;;9.70;4.43;;;;;;;12.28;59.35;101707.63;5051713;27;96818;-69
2022/09/23 03:47:01;;;;;;;9.40;5.50;;;;;;;12.13;59.84;101719.53;5052053;27;96846;-68
2022/09/23 03:49:33;;;;;;;6.43;4.43;;;;;;;12.28;59.53;101705.84;5050526;27;101750;-69
2022/09/23 03:52:02;;;;;;;9.00;4.90;;;;;;;12.27;59.36;101706.75;5049744;27;100049;-69
2022/09/23 03:54:29;;;;;;;9.82;4.82;;;;;;;12.21;59.66;101706.06;5043844;27;97002;-68
2022/09/23 03:56:57;;;;;;;6.75;4.80;;;;;;;12.22;59.59;101703.38;5051343;27;96930;-69
2022/09/23 03:59:23;;;;;;;6.60;4.22;;;;;;;12.03;60.08;101702.13;5045202;27;98902;-69
2022/09/23 04:01:54;;;;;;;9.38;5.30;;;;;;;12.12;60.05;101707.19;5050470;27;98767;-69
2022/09/23 04:04:20;;;;;;;7.97;4.85;;;;;;;12.10;59.53;101703.72;5045862;27;96859;-68
2022/09/23 04:06:48;;;;;;;7.45;5.20;;;;;;;12.19;59.17;101703.47;5051645;27;97144;-68
2022/09/23 04:09:15;;;;;;;13.07;5.50;;;;;;;12.17;59.16;101699.13;5045331;27;99168;-68
2022/09/23 04:11:41;;;;;;;8.48;5.35;;;;;;;12.13;59.59;101695.69;5051066;27;102003;-69
2022/09/23 04:14:11;;;;;;;13.45;4.90;;;;;;;12.12;59.39;101693.94;5050719;27;96807;-68
2022/09/23 04:16:37;;;;;;;8.05;4.82;;;;;;;12.06;59.30;101696.78;5049870;27;98927;-69
2022/09/23 04:19:04;;;;;;;9.10;4.95;;;;;;;11.98;60.34;101689.03;5048478;27;98714;-69
2022/09/23 04:21:30;;;;;;;8.90;4.85;;;;;;;11.98;60.61;101688.16;5049947;27;99519;-69
2022/09/23 04:23:58;;;;;;;8.50;4.72;;;;;;;12.01;60.20;101687.22;5050610;27;96775;-67
2022/09/23 04:26:24;;;;;;;10.07;5.22;;;;;;;12.12;59.69;101682.47;5049821;27;96940;-68
2022/09/23 04:28:51;;;;;;;11.20;5.60;;;;;;;12.06;59.91;101691.47;5051054;27;98963;-68
2022/09/23 04:31:17;;;;;;;8.82;5.25;;;;;;;12.10;59.61;101682.50;5049256;27;98621;-68
2022/09/23 04:33:43;;;;;;;11.32;5.28;;;;;;;11.87;60.37;101691.09;5050219;27;98968;-69
2022/09/23 04:36:10;;;;;;;10.45;5.18;;;;;;;12.05;60.01;101679.13;5049581;27;96890;-68
2022/09/23 04:38:36;;;;;;;7.88;4.88;;;;;;;11.92;60.42;101683.88;5046537;27;99372;-67
2022/09/23 04:41:08;;;;;;;11.05;5.32;;;;;;;12.04;60.35;101676.50;5050539;27;99097;-68
2022/09/23 04:43:37;;;;;;;11.90;5.20;;;;;;;11.84;60.45;101679.69;5043679;27;96777;-68
2022/09/23 04:46:05;;;;;;;10.25;4.78;;;;;;;11.94;60.43;101678.56;5050789;27;96945;-68
2022/09/23 04:48:34;;;;;;;8.82;5.30;;;;;;;11.94;59.87;101682.06;5052641;27;100832;-69
2022/09/23 04:51:04;;;;;;;11.10;6.30;;;;;;;12.10;59.48;101676.34;5050982;27;98797;-68
2022/09/23 04:53:30;;;;;;;12.75;6.57;;;;;;;12.18;58.86;101675.22;5054707;27;98056;-69
2022/09/23 04:56:01;;;;;;;8.68;5.75;;;;;;;12.01;59.66;101681.91;5051093;27;96806;-69
2022/09/23 04:58:31;;;;;;;11.27;5.70;;;;;;;12.19;59.10;101676.09;5049351;27;98953;-68
2022/09/23 05:00:58;;;;;;;8.30;5.32;;;;;;;12.31;58.47;101675.75;5048798;27;102895;-68
2022/09/23 05:03:24;;;;;;;9.13;5.68;;;;;;;12.45;58.18;101678.03;5053708;27;96801;-69
2022/09/23 05:05:51;;;;;;;12.82;6.07;;;;;;;12.14;58.72;101678.84;5049053;27;97037;-66
2022/09/23 05:08:17;;;;;;;10.18;5.70;;;;;;;12.34;58.34;101673.88;5046757;27;98890;-67
2022/09/23 05:10:44;;;;;;;12.27;5.82;;;;;;;12.30;58.67;101680.19;5052805;27;98039;-68
2022/09/23 05:13:11;;;;;;;13.48;5.75;;;;;;;12.46;57.98;101679.78;5049002;27;97468;-68
2022/09/23 05:15:38;;;;;;;11.32;6.15;;;;;;;12.40;58.45;101674.66;5053770;27;97216;-68
2022/09/23 05:18:05;;;;;;;15.23;6.50;;;;;;;12.46;58.32;101669.16;5048687;27;99164;-68
2022/09/23 05:20:34;;;;;;;9.50;5.63;;;;;;;12.40;58.13;101672.88;5052447;27;98815;-69
2022/09/23 05:23:07;;;;;;;11.45;5.68;;;;;;;12.52;58.08;101669.88;5051971;27;96727;-69
2022/09/23 05:25:33;;;;;;;12.00;5.90;;;;;;;12.42;58.58;101676.31;5052345;27;96869;-68
2022/09/23 05:28:00;;;;;;;14.30;5.38;;;;;;;12.37;58.81;101671.16;5044973;27;98989;-69
2022/09/23 05:30:27;;;;;;;11.23;5.53;;;;;;;12.20;59.36;101678.72;5049901;27;101988;-68
2022/09/23 05:32:55;;;;;;;11.43;5.50;;;;;;;12.47;58.52;101674.41;5053606;27;96911;-69
2022/09/23 05:35:21;;;;;;;10.13;5.65;;;;;;;12.45;58.06;101673.59;5059347;27;96882;-68
2022/09/23 05:37:48;;;;;;;11.70;5.60;;;;;;;12.76;57.63;101679.75;5054809;27;98988;-70
2022/09/23 05:40:16;;;;;;;9.57;5.10;;;;;;;13.00;57.02;101667.50;5051918;27;99130;-68
2022/09/23 05:42:42;;;;;;;10.23;5.35;;;;;;;13.02;56.66;101675.44;5055119;27;96709;-69
2022/09/23 05:45:09;;;;;;;12.98;5.45;;;;;;;12.79;57.31;101665.53;5053677;27;96831;-68
2022/09/23 05:47:36;;;;;;;9.15;5.40;;;;;;;13.17;56.44;101669.69;5054098;27;99027;-69
2022/09/23 05:50:04;;;;;;;13.07;5.03;;;;;;;13.25;56.19;101674.75;5054382;27;98948;-68
2022/09/23 05:52:30;;;;;;;12.35;5.40;;;;;;;13.34;56.31;101671.78;5054545;27;96734;-69
2022/09/23 05:54:57;;;;;;;11.07;5.03;;;;;;;13.28;56.29;101664.91;5047064;27;96974;-71
2022/09/23 05:57:23;;;;;;;11.45;5.88;;;;;;;13.41;56.64;101678.63;5051631;27;99313;-69
2022/09/23 05:59:52;;;;;;;9.85;5.13;;;;;;;13.70;55.94;101675.91;5052255;27;98880;-71
2022/09/23 06:02:18;;;;;;;9.52;5.50;;;;;;;13.49;55.94;101669.50;5052971;27;96961;-70
2022/09/23 06:04:47;;;;;;;8.52;5.28;;;;;;;13.78;55.48;101670.34;5052561;27;97181;-68
2022/09/23 06:07:15;;;;;;;13.20;5.60;;;;;;;13.84;55.13;101673.66;5053279;27;99022;-69
2022/09/23 06:09:42;;;;;;;18.55;5.65;;;;;;;14.02;54.67;101674.78;5050362;27;100785;-68
2022/09/23 06:12:10;;;;;;;11.82;5.60;;;;;;;14.18;53.71;101673.31;5053479;27;97062;-69
2022/09/23 06:14:37;;;;;;;14.60;5.72;;;;;;;14.26;53.49;101673.03;5055314;27;97319;-69
2022/09/23 06:17:04;;;;;;;8.93;5.97;;;;;;;14.33;52.96;101672.78;5053675;27;98901;-68
2022/09/23 06:19:30;;;;;;;15.18;6.35;;;;;;;14.46;52.67;101675.88;5050362;27;99262;-68
2022/09/23 06:21:57;;;;;;;14.07;5.50;;;;;;;14.45;52.79;101675.94;5053562;27;96698;-69
2022/09/23 06:24:27;;;;;;;14.43;5.85;;;;;;;14.57;52.39;101671.03;5050644;27;96986;-69
2022/09/23 06:26:55;;;;;;;13.05;5.63;;;;;;;14.26;52.71;101667.72;5052998;27;98221;-68
2022/09/23 06:29:24;;;;;;;12.88;6.20;;;;;;;14.55;51.98;101675.56;5052123;27;98901;-68
2022/09/23 06:31:51;;;;;;;15.02;5.55;;;;;;;14.75;51.53;101670.34;5054490;27;96822;-68
2022/09/23 06:34:17;;;;;;;13.88;5.82;;;;;;;14.51;51.75;101673.03;5052063;27;96855;-69
2022/09/23 06:36:44;;;;;;;8.32;5.55;;;;;;;14.90;51.06;101673.34;5052507;27;100052;-69
2022/09/23 06:39:15;;;;;;;9.48;5.70;;;;;;;15.04;50.82;101673.66;5050919;27;98789;-68
2022/09/23 06:41:43;;;;;;;10.82;5.68;;;;;;;14.82;51.25;101665.66;5044738;27;96952;-69
2022/09/23 06:44:09;;;;;;;11.63;5.47;;;;;;;14.91;51.23;101675.06;5039809;27;99467;-68
2022/09/23 06:46:41;;;;;;;10.52;5.53;;;;;;;15.37;50.16;101679.44;5048239;27;98046;-69
2022/09/23 06:49:08;;;;;;;14.55;5.90;;;;;;;14.92;50.89;101672.34;5049726;27;99261;-70
2022/09/23 06:51:34;;;;;;;12.05;6.22;;;;;;;15.15;50.71;101676.78;5047942;27;96965;-69
2022/09/23 06:54:05;;;;;;;9.90;5.55;;;;;;;15.60;49.32;101676.75;5050347;27;96793;-69
2022/09/23 06:56:32;;;;;;;10.98;6.00;;;;;;;15.48;49.35;101678.09;5049848;27;99283;-70
2022/09/23 06:59:00;;;;;;;11.23;5.68;;;;;;;15.48;49.24;101674.56;5048937;27;99975;-71
2022/09/23 07:01:26;;;;;;;14.75;5.13;;;;;;;15.54;49.12;101680.53;5050346;27;97076;-70
2022/09/23 07:03:53;;;;;;;9.77;5.50;;;;;;;15.62;49.42;101676.69;5047044;27;97251;-69
2022/09/23 07:06:19;;;;;;;11.88;5.13;;;;;;;15.82;48.75;101677.56;5048677;27;97669;-69
2022/09/23 07:08:47;;;;;;;10.15;5.20;;;;;;;15.93;48.29;101685.97;5049133;27;97557;-69
2022/09/23 07:11:15;;;;;;;14.23;5.25;;;;;;;16.09;47.80;101671.97;5048133;27;99422;-70
2022/09/23 07:13:44;;;;;;;8.77;4.95;;;;;;;16.14;47.61;101678.84;5050356;27;96989;-69
2022/09/23 07:16:16;;;;;;;7.93;5.07;;;;;;;16.58;46.75;101673.31;5048621;27;101803;-69
2022/09/23 07:18:45;;;;;;;7.95;4.78;;;;;;;16.76;46.42;101675.16;5048249;27;98754;-70
2022/09/23 07:21:14;;;;;;;11.30;5.95;;;;;;;16.70;46.27;101679.00;5047748;27;96784;-69
2022/09/23 07:23:41;;;;;;;12.95;5.22;;;;;;;16.63;46.67;101676.66;5045828;27;96904;-70
2022/09/23 07:26:08;;;;;;;9.63;4.28;;;;;;;16.98;45.69;101683.91;5048388;27;98829;-69
2022/09/23 07:28:35;;;;;;;8.40;4.22;;;;;;;16.83;45.95;101681.97;5049743;27;99563;-70
2022/09/23 07:31:05;;;;;;;8.75;4.00;;;;;;;17.18;45.77;101680.31;5047128;27;97349;-70
2022/09/23 07:33:34;;;;;;;8.30;4.53;;;;;;;17.10;45.28;101671.78;5049736;27;96921;-70
2022/09/23 07:36:07;;;;;;;7.68;4.55;;;;;;;16.97;45.68;101675.97;5047623;27;99125;-69
2022/09/23 07:38:33;;;;;;;13.45;5.35;;;;;;;17.38;45.12;101676.66;5048582;27;101060;-70
2022/09/23 07:41:02;;;;;;;7.63;4.57;;;;;;;17.26;45.33;101678.13;5048777;27;97304;-70
2022/09/23 07:43:31;;;;;;;7.10;4.53;;;;;;;17.22;45.52;101675.66;5049229;27;97447;-69
2022/09/23 07:45:58;;;;;;;6.38;3.80;;;;;;;17.55;45.16;101668.66;5047671;27;99611;-70
2022/09/23 07:48:30;;;;;;;8.55;4.53;;;;;;;17.49;45.42;101669.84;5042979;27;97930;-70
2022/09/23 07:50:59;;;;;;;8.68;4.78;;;;;;;17.69;45.21;101679.56;5045632;27;98735;-69
2022/09/23 07:53:28;;;;;;;10.82;4.57;;;;;;;17.96;43.95;101676.44;5049800;27;97125;-69
2022/09/23 07:55:56;;;;;;;8.05;5.80;;;;;;;17.83;43.91;101678.88;5048301;27;98054;-69
2022/09/23 07:58:23;;;;;;;9.23;4.88;;;;;;;18.21;44.16;101666.19;5041453;27;98732;-70
2022/09/23 08:00:52;;;;;;;9.77;4.75;;;;;;;18.56;43.33;101675.03;5047422;27;97189;-69
2022/09/23 08:03:20;;;;;;;10.02;5.03;;;;;;;18.75;42.71;101669.56;5032836;27;99682;-70
2022/09/23 08:05:47;;;;;;;7.47;4.68;;;;;;;18.91;41.97;101670.41;5045184;27;99107;-69
2022/09/23 08:08:17;;;;;;;8.88;5.47;;;;;;;18.89;42.45;101672.34;5042532;27;99223;-70
2022/09/23 08:10:44;;;;;;;11.30;4.68;;;;;;;18.94;42.39;101670.25;5043148;27;100347;-70
2022/09/23 08:13:11;;;;;;;7.22;5.22;;;;;;;19.07;41.53;101673.97;5047542;27;97120;-69
2022/09/23 08:15:39;;;;;;;9.15;4.70;;;;;;;19.82;40.39;101662.50;5046257;27;98839;-70
2022/09/23 08:18:05;;;;;;;8.05;5.05;;;;;;;19.81;40.12;101672.38;5047660;27;99835;-70
2022/09/23 08:20:44;;;;;;;10.27;5.30;;;;;;;19.45;40.44;101669.13;5049667;27;97477;-70
2022/09/23 08:23:13;;;;;;;8.25;4.70;;;;;;;19.51;40.58;101671.47;5047630;27;97120;-70
2022/09/23 08:25:41;;;;;;;9.70;4.82;;;;;;;18.99;41.95;101665.50;5048364;27;98871;-69
2022/09/23 08:28:08;;;;;;;9.80;4.40;;;;;;;19.11;42.25;101667.50;5048313;27;99198;-70
2022/09/23 08:30:34;;;;;;;6.80;4.50;;;;;;;18.82;42.13;101665.59;5049729;27;96983;-69
2022/09/23 08:33:01;;;;;;;5.70;4.45;;;;;;;18.86;42.92;101659.09;5052400;27;96981;-70
2022/09/23 08:35:28;;;;;;;7.32;3.60;;;;;;;19.06;42.26;101661.53;5047085;27;98628;-70
2022/09/23 08:37:58;;;;;;;7.03;3.80;;;;;;;19.17;41.92;101664.47;5048140;27;99017;-70
2022/09/23 08:40:24;;;;;;;4.72;3.10;;;;;;;19.30;41.44;101654.78;5043871;27;97851;-70
2022/09/23 08:42:52;;;;;;;6.40;3.35;;;;;;;19.39;41.06;101656.06;5052826;27;97115;-70
2022/09/23 08:45:23;;;;;;;5.05;2.72;;;;;;;19.39;40.48;101661.44;5047926;27;99162;-69
2022/09/23 08:47:55;;;;;;;6.30;2.78;;;;;;;19.20;41.68;101658.94;5052919;27;102007;-69
2022/09/23 08:50:28;;;;;;;5.68;2.78;;;;;;;19.00;41.45;101648.50;5046119;27;97264;-70
2022/09/23 08:52:57;;;;;;;5.50;2.78;;;;;;;19.30;41.21;101644.06;5052593;27;97198;-69
2022/09/23 08:55:30;;;;;;;11.95;3.50;;;;;;;19.46;40.95;101650.31;5051977;27;98765;-70
2022/09/23 08:58:08;;;;;;;4.60;2.40;;;;;;;19.50;40.63;101643.78;5050431;27;98820;-69
2022/09/23 09:00:40;;;;;;;6.20;2.92;;;;;;;19.36;40.45;101642.88;5047300;27;97067;-70
2022/09/23 09:03:20;;;;;;;3.65;3.03;;;;;;;19.52;40.52;101642.84;5049856;27;97282;-69
2022/09/23 09:05:48;;;;;;;3.05;2.25;;;;;;;19.36;40.03;101637.50;5048407;27;98911;-70
2022/09/23 09:08:23;;;;;;;4.93;2.40;;;;;;;19.49;40.58;101636.69;5049888;27;98764;-69
2022/09/23 09:10:57;;;;;;;2.60;2.38;;;;;;;19.44;40.64;101644.13;5043151;27;99258;-70
2022/09/23 09:13:31;;;;;;;3.53;3.13;;;;;;;19.73;40.38;101638.91;5051636;27;96844;-70
2022/09/23 09:16:20;;;;;;;4.15;2.90;;;;;;;19.84;39.91;101647.16;5043944;27;98194;-70
2022/09/23 09:18:53;;;;;;;5.05;3.25;;;;;;;19.85;39.63;101641.72;5048596;27;98519;-69
2022/09/23 09:21:24;;;;;;;6.82;2.70;;;;;;;19.94;39.68;101642.13;5048657;27;96749;-70
2022/09/23 09:23:55;;;;;;;3.50;2.47;;;;;;;19.97;39.53;101634.75;5046411;27;97107;-69
2022/09/23 09:26:24;;;;;;;3.25;2.20;;;;;;;20.26;38.88;101633.84;5051546;27;97854;-69
2022/09/23 09:28:58;;;;;;;4.40;2.42;;;;;;;20.15;39.34;101636.28;5052041;27;98966;-69
2022/09/23 09:31:30;;;;;;;6.78;2.40;;;;;;;20.33;38.60;101626.31;5050715;27;98906;-70
2022/09/23 09:34:06;;;;;;;3.47;1.90;;;;;;;20.35;37.98;101620.84;5047784;27;96947;-69
2022/09/23 09:36:39;;;;;;;4.38;2.35;;;;;;;20.38;38.42;101623.31;5048377;27;98757;-70
2022/09/23 09:39:11;;;;;;;5.43;1.98;;;;;;;20.53;38.13;101623.22;5048639;27;100302;-71
2022/09/23 09:41:40;;;;;;;4.32;2.03;;;;;;;20.39;37.87;101617.00;5048276;27;96765;-70
2022/09/23 09:44:33;;;;;;;2.10;1.83;;;;;;;20.31;36.59;101620.13;5045476;27;96766;-70
2022/09/23 09:47:17;;;;;;;3.65;1.80;;;;;;;20.24;37.49;101611.59;5045960;27;97739;-70
2022/09/23 09:49:50;;;;;;;2.53;1.80;;;;;;;20.43;37.11;101597.03;5043259;27;97563;-69
2022/09/23 09:52:22;;;;;;;2.35;1.88;;;;;;;20.57;36.09;101597.91;5047047;27;96801;-69
2022/09/23 09:54:50;;;;;;;2.20;1.75;;;;;;;20.88;36.70;101601.28;5045524;27;96981;-70
2022/09/23 09:57:25;;;;;;;1.90;1.63;;;;;;;20.93;36.19;101591.13;5042085;27;99491;-71
2022/09/23 09:59:52;;;;;;;5.97;1.92;;;;;;;21.09;36.13;101591.81;5048359;27;102049;-70
2022/09/23 10:02:29;;;;;;;4.15;1.88;;;;;;;21.42;35.84;101586.06;5050388;27;96923;-70
2022/09/23 10:04:58;;;;;;;2.47;1.98;;;;;;;21.42;35.77;101591.44;5047059;27;96797;-70
2022/09/23 10:07:28;;;;;;;1.83;1.50;;;;;;;21.60;35.01;101587.50;5047952;27;101434;-70
2022/09/23 10:09:55;;;;;;;1.83;1.70;;;;;;;21.41;34.91;101585.19;5048665;27;98788;-70
2022/09/23 10:12:23;;;;;;;2.33;1.05;;;;;;;21.48;34.98;101574.88;5050216;27;97699;-70
2022/09/23 10:14:55;;;;;;;2.17;1.33;;;;;;;21.15;34.85;101587.88;5049397;27;97008;-70
2022/09/23 10:17:30;;;;;;;3.40;1.23;;;;;;;20.85;33.73;101578.19;5045397;27;102375;-70
2022/09/23 10:20:00;;;;;;;4.47;2.08;;;;;;;20.67;34.34;101577.56;5044090;27;97628;-69
2022/09/23 10:22:31;;;;;;;2.13;1.65;;;;;;;20.99;34.03;101575.47;5049227;27;96787;-71
2022/09/23 10:25:04;;;;;;;1.70;1.23;;;;;;;20.84;34.26;101573.78;5052944;27;97046;-70
2022/09/23 10:27:34;;;;;;;3.00;1.40;;;;;;;20.98;34.10;101579.13;5049517;27;99569;-69
2022/09/23 10:30:02;;;;;;;3.67;1.45;;;;;;;21.02;34.23;101575.25;5051835;27;97690;-70
2022/09/23 10:32:35;;;;;;;1.80;1.20;;;;;;;21.25;34.23;101572.91;5050762;27;97936;-70
2022/09/23 10:35:12;;;;;;;1.52;1.27;;;;;;;21.53;33.74;101570.06;5051575;27;96930;-70
2022/09/23 10:37:41;;;;;;;1.67;1.30;;;;;;;21.46;34.00;101574.16;5049148;27;99946;-70
2022/09/23 10:49:04;;;;;;;1.27;0.93;;;;;;;21.42;32.78;101561.88;5048543;27;97162;-71
2022/09/23 10:51:38;;;;;;;1.23;1.10;;;;;;;21.50;32.65;101556.84;5049733;27;98752;-70
2022/09/23 10:54:14;;;;;;;2.17;1.25;;;;;;;21.72;32.45;101562.47;5050376;27;96744;-70
2022/09/23 10:56:47;;;;;;;1.60;1.27;;;;;;;22.01;32.49;101549.69;5048256;27;96838;-69
2022/09/23 10:59:35;;;;;;;1.60;1.08;;;;;;;22.10;31.82;101559.81;5047282;27;99143;-70
2022/09/23 11:02:21;;;;;;;1.27;1.00;;;;;;;22.01;31.69;101559.59;5048518;27;97573;-70
2022/09/23 11:05:08;;;;;;;2.13;1.40;;;;;;;21.60;31.62;101560.59;5042973;27;98329;-69
2022/09/23 11:07:45;;;;;;;2.08;1.25;;;;;;;21.68;31.21;101563.63;5045351;27;96785;-70
2022/09/23 11:10:54;;;;;;;2.40;1.30;;;;;;;21.80;30.95;101552.00;5048296;27;101087;-70
2022/09/23 11:13:35;;;;;;;3.35;1.30;;;;;;;22.09;31.34;101536.56;5046619;27;97761;-70
2022/09/23 11:16:12;;;;;;;1.92;1.20;;;;;;;21.87;31.43;101534.47;5047025;27;96774;-69
2022/09/23 11:19:12;;;;;;;1.92;1.15;;;;;;;21.84;31.66;101537.41;5043597;27;96753;-69
2022/09/23 11:21:57;;;;;;;2.25;1.38;;;;;;;21.88;31.87;101524.56;5045348;27;99164;-69
2022/09/23 11:24:48;;;;;;;3.22;1.30;;;;;;;21.97;31.58;101528.50;5044020;27;99336;-69
2022/09/23 11:27:29;;;;;;;2.20;1.20;;;;;;;21.67;31.17;101523.38;5043069;27;96856;-70
2022/09/23 11:30:07;;;;;;;2.47;1.23;;;;;;;21.60;31.57;101517.56;5050543;27;97182;-69
2022/09/23 11:32:52;;;;;;;2.22;1.67;;;;;;;21.82;31.39;101509.72;5047666;27;99488;-69
2022/09/23 11:35:23;;;;;;;1.52;1.10;;;;;;;21.89;30.94;101507.47;5044262;27;99327;-70
2022/09/23 11:37:56;;;;;;;3.95;1.17;;;;;;;22.13;30.74;101502.19;5051198;27;96774;-70
2022/09/23 11:40:27;;;;;;;4.35;1.10;;;;;;;22.17;31.58;101496.50;5045012;27;96905;-68
2022/09/23 11:42:58;;;;;;;2.92;1.50;;;;;;;22.21;31.59;101494.44;5048565;27;99419;-70
2022/09/23 11:45:30;;;;;;;7.15;1.27;;;;;;;22.38;31.61;101491.41;5047034;27;99452;-70
2022/09/23 11:47:59;;;;;;;3.40;1.73;;;;;;;22.38;31.67;101488.69;5050326;27;97450;-70
2022/09/23 11:50:33;;;;;;;1.73;1.00;;;;;;;21.59;29.67;101480.91;5046485;27;97138;-69